createdAt,value
2022-10-01T00:00:26.250Z,6.78
2022-10-01T00:00:57.406Z,6.70
2022-10-01T00:01:27.958Z,6.82
2022-10-01T00:01:58.537Z,6.72
2022-10-01T00:02:29.039Z,6.96
2022-10-01T00:02:59.565Z,7.15
2022-10-01T00:03:30.033Z,6.97
2022-10-01T00:04:01.157Z,6.84
2022-10-01T00:04:31.687Z,6.97
2022-10-01T00:05:02.149Z,7.06
2022-10-01T00:05:33.076Z,7.05
2022-10-01T00:06:04.036Z,7.00
2022-10-01T00:06:35.022Z,7.18
2022-10-01T00:07:06.138Z,7.07
2022-10-01T00:07:36.637Z,7.10
2022-10-01T00:08:07.616Z,7.14
2022-10-01T00:08:38.577Z,7.15
2022-10-01T00:09:09.574Z,7.03
2022-10-01T00:09:40.573Z,7.06
2022-10-01T00:10:11.686Z,7.14
2022-10-01T00:10:42.179Z,7.02
2022-10-01T00:11:13.141Z,7.14
2022-10-01T00:11:44.075Z,6.89
2022-10-01T00:12:15.067Z,7.21
2022-10-01T00:12:46.063Z,6.93
2022-10-01T00:13:17.184Z,7.20
2022-10-01T00:13:47.664Z,7.06
2022-10-01T00:14:18.581Z,7.02
2022-10-01T00:14:49.561Z,7.15
2022-10-01T00:15:20.069Z,7.20
2022-10-01T00:15:51.059Z,7.10
2022-10-01T00:16:21.831Z,7.02
2022-10-01T00:16:52.425Z,7.33
2022-10-01T00:17:22.926Z,7.11
2022-10-01T00:17:53.894Z,7.02
2022-10-01T00:18:24.881Z,7.00
2022-10-01T00:18:55.843Z,6.88
2022-10-01T00:19:26.958Z,6.93
2022-10-01T00:19:57.485Z,6.85
2022-10-01T00:20:27.968Z,7.14
2022-10-01T00:20:58.898Z,7.15
2022-10-01T00:21:29.820Z,7.03
2022-10-01T00:22:00.742Z,7.14
2022-10-01T00:22:31.924Z,7.20
2022-10-01T00:23:02.429Z,7.25
2022-10-01T00:23:33.393Z,7.07
2022-10-01T00:24:04.426Z,7.24
2022-10-01T00:24:34.872Z,7.17
2022-10-01T00:25:05.859Z,7.20
2022-10-01T00:25:36.992Z,7.20
2022-10-01T00:26:07.471Z,7.02
2022-10-01T00:26:38.469Z,7.15
2022-10-01T00:27:09.433Z,6.95
2022-10-01T00:27:40.349Z,7.02
2022-10-01T00:28:11.406Z,7.14
2022-10-01T00:28:42.152Z,7.10
2022-10-01T00:29:12.645Z,7.03
2022-10-01T00:29:43.119Z,7.07
2022-10-01T00:30:14.137Z,7.14
2022-10-01T00:30:44.621Z,7.10
2022-10-01T00:31:15.569Z,6.99
2022-10-01T00:31:46.818Z,7.05
2022-10-01T00:32:17.058Z,6.95
2022-10-01T00:32:47.974Z,7.02
2022-10-01T00:33:18.967Z,7.31
2022-10-01T00:33:49.945Z,7.21
2022-10-01T00:34:20.906Z,7.24
2022-10-01T00:34:52.026Z,6.84
2022-10-01T00:35:22.543Z,7.20
2022-10-01T00:35:52.995Z,7.14
2022-10-01T00:36:23.986Z,7.10
2022-10-01T00:36:54.949Z,7.15
2022-10-01T00:37:25.871Z,7.29
2022-10-01T00:37:56.997Z,7.39
2022-10-01T00:38:27.478Z,7.32
2022-10-01T00:38:58.449Z,7.51
2022-10-01T00:39:29.421Z,7.50
2022-10-01T00:40:00.361Z,7.36
2022-10-01T00:40:31.339Z,7.50
2022-10-01T00:41:02.428Z,7.23
2022-10-01T00:41:33.282Z,7.54
2022-10-01T00:42:03.500Z,7.15
2022-10-01T00:42:34.390Z,7.38
2022-10-01T00:43:05.320Z,7.38
2022-10-01T00:43:36.292Z,7.40
2022-10-01T00:44:07.406Z,7.56
2022-10-01T00:44:37.891Z,7.40
2022-10-01T00:45:08.875Z,7.28
2022-10-01T00:45:39.919Z,7.53
2022-10-01T00:46:10.487Z,7.45
2022-10-01T00:46:40.952Z,7.32
2022-10-01T00:47:12.146Z,7.24
2022-10-01T00:47:42.626Z,7.29
2022-10-01T00:48:13.535Z,7.32
2022-10-01T00:48:44.549Z,7.35
2022-10-01T00:49:15.013Z,7.39
2022-10-01T00:49:45.983Z,7.20
2022-10-01T00:50:17.124Z,7.39
2022-10-01T00:50:47.626Z,7.54
2022-10-01T00:51:18.549Z,7.43
2022-10-01T00:51:49.543Z,7.28
2022-10-01T00:52:20.515Z,7.60
2022-10-01T00:52:51.440Z,7.67
2022-10-01T00:53:22.557Z,7.63
2022-10-01T00:53:53.056Z,7.63
2022-10-01T00:54:24.025Z,7.66
2022-10-01T00:54:54.984Z,7.42
2022-10-01T00:55:25.905Z,7.63
2022-10-01T00:55:57.090Z,7.47
2022-10-01T00:56:27.547Z,7.45
2022-10-01T00:56:58.481Z,7.66
2022-10-01T00:57:29.399Z,7.63
2022-10-01T00:58:00.379Z,7.60
2022-10-01T00:58:30.870Z,7.57
2022-10-01T00:59:01.991Z,7.69
2022-10-01T00:59:32.468Z,7.70
2022-10-01T01:00:03.476Z,7.56
2022-10-01T01:00:33.968Z,7.48
2022-10-01T01:01:04.976Z,7.42
2022-10-01T01:01:35.893Z,7.67
2022-10-01T01:02:06.418Z,7.58
2022-10-01T01:02:36.986Z,7.57
2022-10-01T01:03:07.427Z,7.42
2022-10-01T01:03:38.314Z,7.69
2022-10-01T01:04:09.300Z,7.72
2022-10-01T01:04:40.231Z,7.50
2022-10-01T01:05:11.427Z,7.57
2022-10-01T01:05:41.838Z,7.60
2022-10-01T01:06:12.791Z,7.47
2022-10-01T01:06:43.804Z,7.40
2022-10-01T01:07:14.714Z,7.51
2022-10-01T01:07:45.636Z,7.47
2022-10-01T01:08:16.741Z,7.48
2022-10-01T01:08:47.239Z,7.31
2022-10-01T01:09:18.155Z,7.31
2022-10-01T01:09:49.074Z,7.40
2022-10-01T01:10:20.337Z,7.40
2022-10-01T01:10:50.917Z,7.31
2022-10-01T01:11:22.090Z,7.61
2022-10-01T01:11:52.585Z,7.42
2022-10-01T01:12:23.513Z,7.45
2022-10-01T01:12:54.509Z,7.25
2022-10-01T01:13:24.960Z,7.35
2022-10-01T01:13:56.011Z,7.47
2022-10-01T01:14:27.122Z,7.38
2022-10-01T01:14:57.625Z,7.58
2022-10-01T01:15:28.601Z,7.57
2022-10-01T01:15:59.609Z,7.39
2022-10-01T01:16:30.079Z,7.48
2022-10-01T01:17:00.987Z,7.40
2022-10-01T01:17:32.083Z,7.54
2022-10-01T01:18:02.714Z,7.36
2022-10-01T01:18:33.229Z,7.50
2022-10-01T01:19:04.140Z,7.53
2022-10-01T01:19:35.058Z,7.33
2022-10-01T01:20:06.053Z,7.45
2022-10-01T01:20:37.233Z,7.70
2022-10-01T01:21:07.722Z,7.29
2022-10-01T01:21:38.723Z,7.47
2022-10-01T01:22:09.650Z,7.50
2022-10-01T01:22:40.579Z,7.50
2022-10-01T01:23:11.511Z,7.29
2022-10-01T01:23:42.696Z,7.51
2022-10-01T01:24:13.190Z,7.38
2022-10-01T01:24:43.713Z,7.40
2022-10-01T01:25:14.633Z,7.51
2022-10-01T01:25:45.674Z,7.60
2022-10-01T01:26:16.093Z,7.33
2022-10-01T01:26:47.216Z,7.39
2022-10-01T01:27:17.701Z,7.36
2022-10-01T01:27:48.678Z,7.48
2022-10-01T01:28:19.198Z,7.35
2022-10-01T01:28:49.741Z,7.47
2022-10-01T01:29:20.672Z,7.56
2022-10-01T01:29:51.768Z,7.43
2022-10-01T01:30:22.242Z,7.39
2022-10-01T01:30:53.292Z,7.15
2022-10-01T01:31:23.825Z,7.48
2022-10-01T01:31:54.766Z,7.40
2022-10-01T01:32:25.679Z,7.51
2022-10-01T01:32:56.852Z,7.07
2022-10-01T01:33:27.359Z,7.47
2022-10-01T01:33:58.289Z,7.32
2022-10-01T01:34:29.261Z,7.40
2022-10-01T01:35:00.191Z,7.39
2022-10-01T01:35:31.085Z,7.33
2022-10-01T01:36:02.270Z,7.38
2022-10-01T01:36:32.703Z,7.35
2022-10-01T01:37:03.670Z,7.10
2022-10-01T01:37:34.661Z,7.25
2022-10-01T01:38:05.163Z,7.25
2022-10-01T01:38:36.153Z,7.21
2022-10-01T01:39:07.301Z,7.45
2022-10-01T01:39:37.844Z,7.32
2022-10-01T01:40:08.304Z,7.48
2022-10-01T01:40:39.199Z,7.36
2022-10-01T01:41:10.157Z,7.58
2022-10-01T01:41:41.194Z,7.47
2022-10-01T01:42:11.819Z,7.36
2022-10-01T01:42:42.318Z,7.32
2022-10-01T01:43:12.812Z,7.33
2022-10-01T01:43:44.107Z,7.17
2022-10-01T01:44:14.612Z,7.29
2022-10-01T01:44:45.164Z,7.50
2022-10-01T01:45:16.332Z,7.23
2022-10-01T01:45:46.876Z,7.57
2022-10-01T01:46:17.419Z,7.61
2022-10-01T01:46:47.879Z,7.57
2022-10-01T01:47:18.789Z,7.38
2022-10-01T01:47:49.710Z,7.45
2022-10-01T01:48:20.808Z,7.70
2022-10-01T01:48:51.308Z,7.54
2022-10-01T01:49:22.243Z,7.54
2022-10-01T01:49:53.171Z,7.58
2022-10-01T01:50:24.094Z,7.69
2022-10-01T01:50:55.066Z,7.56
2022-10-01T01:51:25.761Z,7.57
2022-10-01T01:51:56.202Z,7.75
2022-10-01T01:52:27.138Z,7.61
2022-10-01T01:52:58.049Z,7.67
2022-10-01T01:53:29.001Z,7.76
2022-10-01T01:53:59.913Z,7.76
2022-10-01T01:54:31.015Z,7.61
2022-10-01T01:55:01.515Z,7.77
2022-10-01T01:55:32.001Z,7.70
2022-10-01T01:56:02.921Z,7.90
2022-10-01T01:56:33.871Z,7.95
2022-10-01T01:57:04.904Z,7.85
2022-10-01T01:57:35.625Z,8.00
2022-10-01T01:58:06.109Z,8.01
2022-10-01T01:58:37.042Z,7.76
2022-10-01T01:59:07.960Z,8.10
2022-10-01T01:59:38.893Z,7.90
2022-10-01T02:00:09.870Z,7.70
2022-10-01T02:00:41.058Z,7.91
2022-10-01T02:01:11.588Z,7.90
2022-10-01T02:01:42.131Z,7.67
2022-10-01T02:02:12.738Z,7.95
2022-10-01T02:02:43.360Z,7.82
2022-10-01T02:03:13.835Z,7.98
2022-10-01T02:03:44.941Z,7.87
2022-10-01T02:04:15.405Z,8.06
2022-10-01T02:04:46.329Z,8.00
2022-10-01T02:05:17.304Z,7.88
2022-10-01T02:05:48.235Z,8.03
2022-10-01T02:06:19.148Z,7.97
2022-10-01T02:06:50.337Z,7.80
2022-10-01T02:07:20.761Z,8.16
2022-10-01T02:07:51.705Z,8.01
2022-10-01T02:08:22.619Z,8.06
2022-10-01T02:08:53.608Z,7.95
2022-10-01T02:09:24.526Z,7.93
2022-10-01T02:09:55.614Z,7.87
2022-10-01T02:10:26.119Z,8.01
2022-10-01T02:10:57.037Z,8.08
2022-10-01T02:11:27.944Z,8.08
2022-10-01T02:11:58.938Z,7.80
2022-10-01T02:12:29.825Z,8.10
2022-10-01T02:13:00.993Z,8.12
2022-10-01T02:13:31.469Z,7.94
2022-10-01T02:14:01.953Z,8.01
2022-10-01T02:14:32.872Z,8.42
2022-10-01T02:15:03.872Z,8.16
2022-10-01T02:15:34.832Z,8.09
2022-10-01T02:16:06.002Z,8.23
2022-10-01T02:16:36.491Z,8.06
2022-10-01T02:17:07.469Z,8.05
2022-10-01T02:17:38.389Z,8.19
2022-10-01T02:18:09.287Z,8.15
2022-10-01T02:18:40.264Z,8.28
2022-10-01T02:19:11.472Z,8.12
2022-10-01T02:19:41.970Z,8.06
2022-10-01T02:20:12.901Z,8.28
2022-10-01T02:20:43.879Z,8.28
2022-10-01T02:21:14.811Z,8.16
2022-10-01T02:21:45.780Z,8.19
2022-10-01T02:22:16.939Z,8.41
2022-10-01T02:22:47.347Z,8.18
2022-10-01T02:23:18.379Z,8.20
2022-10-01T02:23:48.779Z,8.12
2022-10-01T02:24:19.685Z,8.15
2022-10-01T02:24:50.668Z,8.05
2022-10-01T02:25:21.872Z,8.13
2022-10-01T02:25:52.399Z,8.30
2022-10-01T02:26:22.801Z,8.37
2022-10-01T02:26:53.723Z,8.12
2022-10-01T02:27:24.769Z,8.12
2022-10-01T02:27:55.270Z,8.01
2022-10-01T02:28:26.017Z,8.19
2022-10-01T02:28:56.580Z,8.27
2022-10-01T02:29:27.039Z,8.19
2022-10-01T02:29:57.954Z,8.08
2022-10-01T02:30:28.912Z,8.15
2022-10-01T02:30:59.988Z,8.00
2022-10-01T02:31:31.211Z,8.06
2022-10-01T02:32:01.379Z,8.18
2022-10-01T02:32:32.337Z,8.13
2022-10-01T02:33:03.330Z,8.16
2022-10-01T02:33:34.223Z,8.24
2022-10-01T02:34:07.551Z,8.15
2022-10-01T02:34:35.936Z,8.13
2022-10-01T02:35:06.428Z,8.10
2022-10-01T02:36:19.261Z,8.12
2022-10-01T02:36:50.132Z,7.80
2022-10-01T02:37:21.168Z,8.12
2022-10-01T02:37:51.693Z,7.97
2022-10-01T02:38:22.356Z,8.06
2022-10-01T02:38:52.820Z,8.08
2022-10-01T02:39:23.720Z,7.95
2022-10-01T02:39:54.710Z,8.18
2022-10-01T02:40:25.762Z,7.97
2022-10-01T02:40:56.196Z,7.90
2022-10-01T02:41:27.357Z,7.79
2022-10-01T02:41:57.834Z,7.85
2022-10-01T02:42:28.756Z,8.13
2022-10-01T02:42:59.722Z,7.98
2022-10-01T02:43:30.639Z,7.97
2022-10-01T02:44:01.528Z,8.10
2022-10-01T02:44:32.624Z,7.80
2022-10-01T02:45:03.102Z,7.77
2022-10-01T02:45:33.991Z,7.88
2022-10-01T02:46:05.044Z,7.90
2022-10-01T02:46:35.580Z,7.80
2022-10-01T02:47:06.093Z,7.72
2022-10-01T02:47:36.712Z,7.79
2022-10-01T02:48:07.211Z,7.61
2022-10-01T02:48:38.139Z,7.53
2022-10-01T02:49:09.056Z,7.61
2022-10-01T02:49:39.974Z,7.82
2022-10-01T02:50:10.871Z,7.75
2022-10-01T02:50:41.985Z,7.57
2022-10-01T02:51:12.509Z,7.69
2022-10-01T02:51:42.931Z,7.61
2022-10-01T02:52:13.938Z,7.88
2022-10-01T02:52:44.437Z,7.76
2022-10-01T02:53:15.381Z,7.77
2022-10-01T02:53:46.518Z,7.73
2022-10-01T02:54:17.030Z,7.42
2022-10-01T02:54:47.942Z,7.66
2022-10-01T02:55:18.860Z,7.53
2022-10-01T02:55:49.851Z,7.69
2022-10-01T02:56:20.836Z,7.51
2022-10-01T02:56:54.286Z,7.61
2022-10-01T02:57:22.205Z,7.67
2022-10-01T02:57:53.135Z,7.61
2022-10-01T02:58:24.125Z,7.53
2022-10-01T02:58:55.048Z,7.60
2022-10-01T02:59:26.014Z,7.56
2022-10-01T02:59:57.142Z,7.58
2022-10-01T03:00:27.622Z,7.67
2022-10-01T03:00:58.609Z,7.87
2022-10-01T03:01:29.594Z,7.69
2022-10-01T03:02:00.274Z,7.56
2022-10-01T03:02:31.136Z,7.73
2022-10-01T03:03:01.826Z,7.60
2022-10-01T03:03:32.322Z,7.75
2022-10-01T03:04:03.234Z,7.76
2022-10-01T03:04:34.249Z,7.76
2022-10-01T03:05:05.167Z,7.75
2022-10-01T03:05:36.065Z,7.66
2022-10-01T03:06:07.189Z,7.82
2022-10-01T03:06:37.700Z,7.73
2022-10-01T03:07:08.624Z,7.63
2022-10-01T03:07:39.582Z,7.85
2022-10-01T03:08:10.558Z,7.75
2022-10-01T03:08:41.033Z,7.75
2022-10-01T03:09:12.214Z,7.63
2022-10-01T03:09:42.693Z,7.79
2022-10-01T03:10:13.601Z,7.60
2022-10-01T03:10:46.739Z,7.56
2022-10-01T03:11:15.600Z,7.91
2022-10-01T03:11:46.288Z,7.88
2022-10-01T03:12:16.740Z,7.94
2022-10-01T03:12:47.703Z,7.67
2022-10-01T03:13:18.739Z,7.80
2022-10-01T03:13:49.286Z,7.77
2022-10-01T03:14:20.215Z,7.67
2022-10-01T03:14:51.298Z,7.60
2022-10-01T03:15:21.782Z,7.73
2022-10-01T03:15:52.722Z,7.87
2022-10-01T03:16:23.786Z,8.10
2022-10-01T03:16:54.215Z,8.01
2022-10-01T03:17:25.157Z,7.75
2022-10-01T03:17:56.266Z,8.13
2022-10-01T03:18:26.756Z,8.00
2022-10-01T03:18:57.785Z,7.94
2022-10-01T03:19:28.212Z,8.13
2022-10-01T03:19:59.112Z,7.90
2022-10-01T03:20:30.039Z,8.10
2022-10-01T03:21:01.134Z,7.88
2022-10-01T03:21:32.011Z,8.06
2022-10-01T03:22:02.189Z,8.26
2022-10-01T03:22:33.113Z,7.88
2022-10-01T03:23:04.100Z,7.87
2022-10-01T03:23:34.989Z,7.90
2022-10-01T03:24:06.387Z,7.88
2022-10-01T03:24:36.825Z,8.01
2022-10-01T03:25:07.747Z,7.98
2022-10-01T03:25:38.648Z,8.05
2022-10-01T03:26:09.610Z,8.05
2022-10-01T03:26:40.539Z,8.03
2022-10-01T03:27:11.753Z,8.03
2022-10-01T03:27:42.282Z,7.94
2022-10-01T03:28:12.809Z,7.77
2022-10-01T03:28:43.572Z,7.93
2022-10-01T03:29:14.530Z,7.90
2022-10-01T03:29:45.510Z,8.13
2022-10-01T03:30:16.589Z,8.10
2022-10-01T03:30:47.096Z,8.06
2022-10-01T03:31:17.633Z,8.09
2022-10-01T03:31:48.188Z,8.01
2022-10-01T03:32:18.699Z,8.00
2022-10-01T03:32:49.620Z,7.90
2022-10-01T03:33:20.798Z,7.93
2022-10-01T03:33:51.269Z,7.82
2022-10-01T03:34:22.162Z,7.83
2022-10-01T03:34:53.087Z,7.90
2022-10-01T03:35:24.090Z,7.77
2022-10-01T03:35:55.004Z,7.94
2022-10-01T03:36:26.180Z,7.88
2022-10-01T03:36:56.647Z,7.93
2022-10-01T03:37:27.544Z,8.09
2022-10-01T03:37:58.434Z,8.05
2022-10-01T03:38:29.369Z,8.00
2022-10-01T03:39:00.406Z,7.98
2022-10-01T03:39:31.116Z,7.88
2022-10-01T03:40:01.604Z,7.87
2022-10-01T03:40:32.552Z,7.87
2022-10-01T03:41:03.551Z,7.97
2022-10-01T03:41:34.786Z,7.94
2022-10-01T03:42:05.318Z,8.00
2022-10-01T03:42:36.436Z,8.05
2022-10-01T03:43:06.912Z,7.88
2022-10-01T03:43:37.875Z,7.93
2022-10-01T03:44:08.856Z,8.06
2022-10-01T03:44:39.849Z,7.91
2022-10-01T03:45:10.765Z,7.88
2022-10-01T03:45:41.970Z,7.82
2022-10-01T03:46:13.592Z,8.03
2022-10-01T03:46:43.031Z,7.98
2022-10-01T03:47:13.966Z,7.91
2022-10-01T03:47:45.013Z,7.94
2022-10-01T03:48:15.521Z,7.93
2022-10-01T03:48:46.196Z,7.73
2022-10-01T03:49:16.782Z,7.73
2022-10-01T03:49:47.210Z,7.98
2022-10-01T03:50:18.177Z,8.03
2022-10-01T03:50:48.666Z,7.93
2022-10-01T03:51:20.010Z,7.85
2022-10-01T03:51:50.736Z,8.06
2022-10-01T03:52:21.228Z,7.94
2022-10-01T03:52:52.207Z,8.08
2022-10-01T03:53:23.191Z,7.82
2022-10-01T03:53:54.144Z,7.87
2022-10-01T03:54:25.036Z,7.75
2022-10-01T03:54:56.148Z,7.63
2022-10-01T03:55:26.620Z,7.94
2022-10-01T03:55:57.549Z,7.80
2022-10-01T03:56:28.533Z,8.01
2022-10-01T03:56:59.530Z,7.94
2022-10-01T03:57:30.450Z,7.91
2022-10-01T03:58:01.619Z,7.91
2022-10-01T03:58:32.081Z,7.67
2022-10-01T03:59:03.050Z,7.91
2022-10-01T03:59:34.042Z,7.75
2022-10-01T04:00:05.094Z,7.82
2022-10-01T04:00:35.607Z,7.67
2022-10-01T04:01:06.725Z,7.80
2022-10-01T04:01:37.724Z,7.85
2022-10-01T04:02:08.028Z,7.88
2022-10-01T04:02:38.736Z,7.70
2022-10-01T04:03:09.402Z,7.85
2022-10-01T04:03:39.868Z,7.70
2022-10-01T04:04:11.036Z,7.90
2022-10-01T04:04:41.520Z,7.53
2022-10-01T04:05:12.018Z,7.79
2022-10-01T04:05:42.974Z,7.73
2022-10-01T04:06:13.906Z,7.53
2022-10-01T04:06:44.820Z,7.72
2022-10-01T04:07:15.981Z,7.48
2022-10-01T04:07:46.472Z,7.60
2022-10-01T04:08:20.801Z,7.72
2022-10-01T04:08:47.893Z,7.67
2022-10-01T04:09:18.869Z,7.75
2022-10-01T04:09:50.040Z,7.77
2022-10-01T04:10:20.511Z,7.70
2022-10-01T04:10:51.524Z,7.61
2022-10-01T04:11:22.016Z,7.66
2022-10-01T04:11:53.001Z,7.40
2022-10-01T04:12:23.971Z,7.57
2022-10-01T04:12:55.158Z,7.85
2022-10-01T04:13:25.641Z,7.75
2022-10-01T04:13:56.555Z,7.66
2022-10-01T04:14:27.530Z,7.69
2022-10-01T04:14:58.499Z,7.77
2022-10-01T04:15:29.407Z,7.66
2022-10-01T04:16:00.627Z,7.48
2022-10-01T04:16:31.198Z,7.67
2022-10-01T04:17:01.974Z,7.82
2022-10-01T04:17:32.967Z,7.83
2022-10-01T04:18:03.878Z,7.75
2022-10-01T04:18:34.844Z,7.67
2022-10-01T04:19:06.036Z,7.87
2022-10-01T04:19:36.514Z,7.80
2022-10-01T04:20:07.404Z,7.90
2022-10-01T04:20:38.321Z,7.79
2022-10-01T04:21:09.305Z,7.87
2022-10-01T04:21:40.203Z,7.67
2022-10-01T04:22:11.315Z,7.70
2022-10-01T04:22:41.795Z,7.56
2022-10-01T04:23:12.711Z,7.87
2022-10-01T04:23:43.625Z,7.76
2022-10-01T04:24:14.542Z,8.10
2022-10-01T04:24:45.496Z,7.58
2022-10-01T04:25:16.598Z,7.60
2022-10-01T04:25:47.094Z,7.76
2022-10-01T04:26:18.105Z,7.75
2022-10-01T04:26:48.523Z,7.79
2022-10-01T04:27:19.513Z,7.83
2022-10-01T04:27:50.486Z,7.63
2022-10-01T04:28:21.362Z,7.72
2022-10-01T04:28:51.627Z,7.77
2022-10-01T04:29:22.547Z,7.88
2022-10-01T04:29:53.543Z,7.67
2022-10-01T04:30:24.033Z,7.77
2022-10-01T04:30:54.527Z,7.79
2022-10-01T04:31:25.371Z,7.88
2022-10-01T04:31:55.710Z,7.87
2022-10-01T04:32:26.232Z,7.88
2022-10-01T04:32:57.244Z,7.80
2022-10-01T04:33:28.210Z,7.85
2022-10-01T04:33:59.212Z,7.76
2022-10-01T04:34:30.312Z,7.70
2022-10-01T04:35:00.791Z,7.94
2022-10-01T04:35:31.772Z,7.82
2022-10-01T04:36:02.680Z,7.87
2022-10-01T04:36:33.599Z,7.90
2022-10-01T04:37:04.568Z,7.77
2022-10-01T04:37:35.680Z,7.94
2022-10-01T04:38:06.160Z,7.83
2022-10-01T04:38:37.077Z,7.73
2022-10-01T04:39:08.044Z,7.95
2022-10-01T04:39:39.029Z,8.05
2022-10-01T04:40:10.005Z,7.91
2022-10-01T04:40:41.178Z,8.10
2022-10-01T04:41:11.725Z,7.94
2022-10-01T04:41:42.141Z,7.82
2022-10-01T04:42:13.061Z,7.94
2022-10-01T04:42:44.036Z,7.97
2022-10-01T04:43:15.028Z,8.01
2022-10-01T04:43:46.211Z,8.09
2022-10-01T04:44:16.670Z,8.05
2022-10-01T04:44:47.655Z,7.91
2022-10-01T04:45:18.680Z,7.87
2022-10-01T04:45:49.160Z,7.94
2022-10-01T04:46:20.150Z,7.91
2022-10-01T04:46:50.928Z,7.90
2022-10-01T04:47:21.459Z,7.97
2022-10-01T04:47:52.352Z,8.13
2022-10-01T04:48:23.344Z,7.93
2022-10-01T04:48:54.339Z,7.87
2022-10-01T04:49:25.263Z,8.12
2022-10-01T04:49:56.451Z,8.03
2022-10-01T04:50:26.925Z,7.85
2022-10-01T04:50:57.890Z,8.00
2022-10-01T04:51:28.859Z,7.97
2022-10-01T04:51:59.779Z,7.90
2022-10-01T04:52:30.701Z,8.01
2022-10-01T04:53:01.880Z,7.83
2022-10-01T04:53:32.374Z,8.00
2022-10-01T04:54:03.290Z,7.80
2022-10-01T04:54:34.220Z,7.87
2022-10-01T04:55:05.211Z,7.77
2022-10-01T04:55:36.180Z,7.90
2022-10-01T04:56:07.364Z,8.01
2022-10-01T04:56:37.857Z,7.90
2022-10-01T04:57:08.872Z,8.00
2022-10-01T04:57:39.367Z,8.03
2022-10-01T04:58:10.285Z,8.19
2022-10-01T04:58:41.214Z,7.90
2022-10-01T04:59:12.377Z,7.83
2022-10-01T04:59:42.858Z,8.01
2022-10-01T05:00:13.786Z,7.91
2022-10-01T05:00:44.837Z,8.03
2022-10-01T05:01:15.346Z,8.01
2022-10-01T05:01:45.950Z,8.27
2022-10-01T05:02:16.667Z,7.93
2022-10-01T05:02:47.192Z,8.12
2022-10-01T05:03:18.109Z,8.00
2022-10-01T05:03:49.091Z,7.82
2022-10-01T05:04:20.076Z,7.91
2022-10-01T05:04:50.986Z,8.18
2022-10-01T05:05:22.163Z,7.88
2022-10-01T05:05:52.622Z,7.97
2022-10-01T05:06:23.556Z,7.73
2022-10-01T05:06:54.490Z,8.16
2022-10-01T05:07:25.408Z,8.12
2022-10-01T05:07:56.294Z,8.13
2022-10-01T05:08:27.426Z,8.23
2022-10-01T05:08:57.858Z,7.82
2022-10-01T05:09:28.720Z,7.97
2022-10-01T05:09:59.634Z,7.98
2022-10-01T05:10:30.548Z,8.08
2022-10-01T05:11:01.514Z,7.77
2022-10-01T05:11:32.990Z,7.88
2022-10-01T05:12:03.197Z,8.05
2022-10-01T05:12:34.178Z,7.94
2022-10-01T05:13:05.125Z,7.94
2022-10-01T05:13:35.989Z,8.00
2022-10-01T05:14:06.899Z,7.97
2022-10-01T05:14:38.001Z,7.87
2022-10-01T05:15:08.431Z,7.97
2022-10-01T05:15:39.377Z,8.05
2022-10-01T05:16:10.502Z,8.05
2022-10-01T05:16:41.119Z,7.98
2022-10-01T05:17:11.596Z,7.90
2022-10-01T05:17:42.655Z,8.01
2022-10-01T05:18:13.093Z,7.90
2022-10-01T05:18:44.036Z,8.00
2022-10-01T05:19:14.913Z,8.06
2022-10-01T05:19:45.833Z,7.98
2022-10-01T05:20:16.783Z,8.06
2022-10-01T05:20:47.920Z,7.95
2022-10-01T05:21:18.343Z,7.97
2022-10-01T05:21:49.209Z,7.98
2022-10-01T05:22:20.129Z,8.01
2022-10-01T05:22:50.988Z,7.98
2022-10-01T05:23:21.863Z,7.93
2022-10-01T05:23:52.918Z,7.90
2022-10-01T05:24:23.383Z,8.01
2022-10-01T05:24:54.300Z,8.12
2022-10-01T05:25:25.255Z,7.95
2022-10-01T05:25:56.125Z,7.94
2022-10-01T05:26:27.028Z,7.88
2022-10-01T05:26:58.080Z,7.94
2022-10-01T05:27:28.528Z,8.09
2022-10-01T05:27:59.565Z,7.90
2022-10-01T05:28:30.124Z,8.13
2022-10-01T05:29:00.527Z,8.00
2022-10-01T05:29:31.456Z,8.01
2022-10-01T05:30:02.617Z,7.93
2022-10-01T05:30:33.052Z,7.95
2022-10-01T05:31:03.984Z,8.06
2022-10-01T05:31:35.387Z,8.03
2022-10-01T05:32:05.646Z,7.75
2022-10-01T05:32:36.397Z,8.08
2022-10-01T05:33:07.424Z,8.19
2022-10-01T05:33:37.843Z,8.06
2022-10-01T05:34:08.712Z,8.26
2022-10-01T05:34:39.746Z,7.95
2022-10-01T05:35:10.107Z,8.13
2022-10-01T05:35:40.981Z,8.00
2022-10-01T05:36:12.040Z,8.03
2022-10-01T05:36:42.459Z,8.00
2022-10-01T05:37:13.404Z,7.93
2022-10-01T05:37:44.266Z,8.09
2022-10-01T05:38:15.190Z,8.08
2022-10-01T05:38:46.065Z,8.00
2022-10-01T05:39:17.173Z,8.06
2022-10-01T05:39:47.604Z,7.97
2022-10-01T05:40:18.537Z,8.10
2022-10-01T05:40:49.449Z,8.18
2022-10-01T05:41:20.320Z,8.06
2022-10-01T05:41:51.241Z,8.10
2022-10-01T05:42:22.346Z,8.09
2022-10-01T05:42:52.777Z,8.09
2022-10-01T05:43:23.713Z,8.26
2022-10-01T05:43:54.595Z,7.97
2022-10-01T05:44:25.508Z,8.16
2022-10-01T05:44:56.345Z,7.94
2022-10-01T05:45:27.459Z,8.05
2022-10-01T05:46:00.283Z,8.12
2022-10-01T05:46:28.771Z,8.23
2022-10-01T05:46:59.727Z,8.30
2022-10-01T05:47:30.586Z,8.18
2022-10-01T05:48:01.459Z,8.20
2022-10-01T05:48:32.562Z,8.26
2022-10-01T05:49:02.998Z,8.26
2022-10-01T05:49:33.936Z,8.18
2022-10-01T05:50:04.797Z,8.28
2022-10-01T05:50:35.716Z,8.03
2022-10-01T05:51:06.578Z,8.18
2022-10-01T05:51:37.765Z,8.44
2022-10-01T05:52:08.182Z,8.28
2022-10-01T05:52:39.084Z,8.10
2022-10-01T05:53:09.979Z,8.23
2022-10-01T05:53:40.838Z,8.10
2022-10-01T05:54:11.677Z,8.15
2022-10-01T05:54:42.800Z,8.18
2022-10-01T05:55:13.246Z,8.03
2022-10-01T05:55:44.177Z,8.30
2022-10-01T05:56:15.080Z,8.36
2022-10-01T05:56:46.018Z,8.19
2022-10-01T05:57:16.922Z,8.26
2022-10-01T05:57:48.061Z,8.28
2022-10-01T05:58:18.493Z,8.31
2022-10-01T05:58:49.366Z,8.20
2022-10-01T05:59:20.303Z,8.26
2022-10-01T05:59:51.174Z,8.30
2022-10-01T06:00:22.074Z,8.16
2022-10-01T06:00:53.140Z,8.36
2022-10-01T06:01:23.559Z,8.34
2022-10-01T06:01:54.550Z,8.44
2022-10-01T06:02:25.330Z,8.16
2022-10-01T06:02:56.177Z,8.27
2022-10-01T06:03:26.646Z,8.34
2022-10-01T06:03:57.769Z,8.45
2022-10-01T06:04:28.205Z,8.37
2022-10-01T06:04:59.082Z,8.51
2022-10-01T06:05:30.005Z,8.33
2022-10-01T06:06:00.915Z,8.38
2022-10-01T06:06:31.796Z,8.33
2022-10-01T06:07:02.937Z,8.42
2022-10-01T06:07:33.353Z,8.42
2022-10-01T06:08:04.263Z,8.31
2022-10-01T06:08:35.154Z,8.42
2022-10-01T06:09:06.110Z,8.53
2022-10-01T06:09:37.019Z,8.42
2022-10-01T06:10:08.072Z,8.42
2022-10-01T06:10:38.555Z,8.52
2022-10-01T06:11:09.410Z,8.44
2022-10-01T06:11:40.360Z,8.48
2022-10-01T06:12:11.228Z,8.28
2022-10-01T06:12:42.141Z,8.44
2022-10-01T06:13:13.211Z,8.58
2022-10-01T06:13:43.639Z,8.41
2022-10-01T06:14:14.491Z,8.46
2022-10-01T06:14:45.429Z,8.38
2022-10-01T06:15:16.255Z,8.53
2022-10-01T06:15:47.150Z,8.49
2022-10-01T06:16:18.381Z,8.38
2022-10-01T06:16:48.933Z,8.46
2022-10-01T06:17:19.818Z,8.42
2022-10-01T06:17:50.714Z,8.48
2022-10-01T06:18:21.563Z,8.33
2022-10-01T06:18:52.487Z,8.66
2022-10-01T06:19:23.617Z,8.42
2022-10-01T06:19:54.050Z,8.53
2022-10-01T06:20:24.909Z,8.48
2022-10-01T06:20:55.847Z,8.51
2022-10-01T06:21:26.753Z,8.60
2022-10-01T06:21:57.693Z,8.45
2022-10-01T06:22:28.830Z,8.51
2022-10-01T06:22:59.244Z,8.61
2022-10-01T06:23:30.108Z,8.60
2022-10-01T06:24:01.043Z,8.51
2022-10-01T06:24:31.982Z,8.66
2022-10-01T06:25:02.859Z,8.49
2022-10-01T06:25:33.990Z,8.45
2022-10-01T06:26:04.446Z,8.58
2022-10-01T06:26:35.378Z,8.79
2022-10-01T06:27:06.240Z,8.33
2022-10-01T06:27:37.173Z,8.82
2022-10-01T06:28:08.111Z,8.63
2022-10-01T06:28:38.717Z,8.63
2022-10-01T06:29:09.138Z,8.55
2022-10-01T06:29:40.024Z,8.53
2022-10-01T06:30:10.887Z,8.61
2022-10-01T06:30:41.796Z,8.67
2022-10-01T06:31:12.741Z,8.56
2022-10-01T06:31:43.881Z,8.71
2022-10-01T06:32:14.312Z,8.92
2022-10-01T06:32:45.158Z,8.74
2022-10-01T06:33:16.121Z,8.73
2022-10-01T06:33:47.070Z,8.60
2022-10-01T06:34:17.995Z,8.63
2022-10-01T06:34:49.108Z,8.66
2022-10-01T06:35:19.553Z,8.53
2022-10-01T06:35:50.430Z,8.71
2022-10-01T06:36:21.296Z,8.64
2022-10-01T06:36:52.141Z,8.41
2022-10-01T06:37:23.070Z,8.74
2022-10-01T06:37:54.142Z,8.81
2022-10-01T06:38:24.610Z,8.81
2022-10-01T06:38:55.465Z,8.55
2022-10-01T06:39:26.394Z,8.58
2022-10-01T06:39:57.256Z,8.81
2022-10-01T06:40:28.130Z,8.70
2022-10-01T06:40:59.273Z,8.69
2022-10-01T06:41:29.741Z,8.94
2022-10-01T06:42:00.678Z,8.82
2022-10-01T06:42:31.613Z,8.64
2022-10-01T06:43:02.529Z,8.76
2022-10-01T06:43:33.426Z,8.91
2022-10-01T06:44:04.560Z,8.89
2022-10-01T06:44:35.005Z,8.87
2022-10-01T06:45:05.886Z,9.04
2022-10-01T06:45:36.846Z,8.91
2022-10-01T06:46:07.798Z,8.79
2022-10-01T06:46:38.566Z,8.73
2022-10-01T06:47:09.623Z,9.02
2022-10-01T06:47:40.062Z,8.89
2022-10-01T06:48:11.002Z,8.97
2022-10-01T06:48:41.927Z,8.64
2022-10-01T06:49:12.789Z,8.85
2022-10-01T06:49:47.459Z,8.85
2022-10-01T06:50:14.867Z,8.99
2022-10-01T06:50:45.352Z,8.89
2022-10-01T06:51:15.786Z,8.78